Time;durP1;ratioP1;P1;durP2;ratioP2;P2;SDS_P1;SDS_P2;PMS_P1;PMS_P2;Temp;Humidity;BMP_temperature;BMP_pressure;BME280_temperature;BME280_humidity;BME280_pressure;Samples;Min_cycle;Max_cycle;Signal;HPM_P1;HPM_P2
2022/04/11 00:01:25;;;;;;;17.58;5.90;;;;;;;;;;7374756;19;20354;-81
2022/04/11 00:03:51;;;;;;;14.57;5.35;;;;;;;;;;7377645;19;20051;-77
2022/04/11 00:06:16;;;;;;;11.13;5.20;;;;;;;;;;7324729;19;20098;-78
2022/04/11 00:08:41;;;;;;;11.70;5.30;;;;;;;;;;7370606;19;20022;-78
2022/04/11 00:11:06;;;;;;;11.60;4.20;;;;;;;;;;7368151;19;20367;-80
2022/04/11 00:13:32;;;;;;;12.60;4.90;;;;;;;;;;7377488;19;20478;-80
2022/04/11 00:15:57;;;;;;;9.95;4.50;;;;;;;;;;7379281;19;20006;-81
2022/04/11 00:18:22;;;;;;;13.20;4.77;;;;;;;;;;7368767;19;20283;-77
2022/04/11 00:20:47;;;;;;;11.95;4.70;;;;;;;;;;7377094;19;20255;-78
2022/04/11 00:23:13;;;;;;;13.47;4.90;;;;;;;;;;7379598;19;20265;-78
2022/04/11 00:25:38;;;;;;;15.32;5.40;;;;;;;;;;7378885;19;20327;-79
2022/04/11 00:28:03;;;;;;;9.63;4.32;;;;;;;;;;7364357;19;20766;-77
2022/04/11 00:30:29;;;;;;;11.18;4.60;;;;;;;;;;7378945;19;20042;-78
2022/04/11 00:32:54;;;;;;;9.05;4.57;;;;;;;;;;7378559;19;20070;-78
2022/04/11 00:35:19;;;;;;;11.98;4.93;;;;;;;;;;7376500;19;20082;-77
2022/04/11 00:37:44;;;;;;;13.27;4.63;;;;;;;;;;7377586;19;20010;-78
2022/04/11 00:40:10;;;;;;;13.53;5.13;;;;;;;;;;7374020;19;20002;-80
2022/04/11 00:42:35;;;;;;;11.13;4.85;;;;;;;;;;7375729;19;20600;-77
2022/04/11 00:45:00;;;;;;;10.13;4.65;;;;;;;;;;7377717;19;20405;-78
2022/04/11 00:47:26;;;;;;;13.98;4.95;;;;;;;;;;7378763;19;20021;-79
2022/04/11 00:49:53;;;;;;;9.52;4.43;;;;;;;;;;7366086;19;20385;-80
2022/04/11 00:52:20;;;;;;;10.50;4.60;;;;;;;;;;7375932;19;20022;-77
2022/04/11 00:54:45;;;;;;;14.73;4.88;;;;;;;;;;7379727;19;20003;-80
2022/04/11 00:57:10;;;;;;;11.07;5.05;;;;;;;;;;7377525;19;20017;-78
2022/04/11 00:59:36;;;;;;;11.48;4.97;;;;;;;;;;7375121;19;20008;-80
2022/04/11 01:02:03;;;;;;;13.25;4.50;;;;;;;;;;7370330;19;20049;-78
2022/04/11 01:04:28;;;;;;;11.95;4.53;;;;;;;;;;7376081;19;20002;-80
2022/04/11 01:06:55;;;;;;;14.55;5.43;;;;;;;;;;7376660;19;19994;-79
2022/04/11 01:09:20;;;;;;;9.50;4.50;;;;;;;;;;7374605;19;20034;-78
2022/04/11 01:11:45;;;;;;;15.18;5.10;;;;;;;;;;7376305;19;20375;-79
2022/04/11 01:14:10;;;;;;;14.52;4.78;;;;;;;;;;7380791;19;20325;-79
2022/04/11 01:16:36;;;;;;;11.32;4.40;;;;;;;;;;7375761;19;20032;-78
2022/04/11 01:19:01;;;;;;;9.38;4.70;;;;;;;;;;7378854;19;20002;-79
2022/04/11 01:21:31;;;;;;;11.10;4.90;;;;;;;;;;7371616;19;20014;-77
2022/04/11 01:23:56;;;;;;;10.25;4.60;;;;;;;;;;7374148;19;20005;-78
2022/04/11 01:26:22;;;;;;;12.93;5.68;;;;;;;;;;7376693;19;20018;-79
2022/04/11 01:28:48;;;;;;;11.82;4.93;;;;;;;;;;7379010;19;20474;-79
2022/04/11 01:31:13;;;;;;;7.22;3.95;;;;;;;;;;7375283;19;20053;-78
2022/04/11 01:33:38;;;;;;;9.23;4.50;;;;;;;;;;7378059;19;19999;-77
2022/04/11 01:36:04;;;;;;;8.90;3.75;;;;;;;;;;7370000;19;20251;-80
2022/04/11 01:38:29;;;;;;;12.27;4.45;;;;;;;;;;7381534;19;20355;-79
2022/04/11 01:40:55;;;;;;;12.43;5.40;;;;;;;;;;7370822;19;20351;-79
2022/04/11 01:43:20;;;;;;;12.07;4.20;;;;;;;;;;7373566;19;19999;-77
2022/04/11 01:45:46;;;;;;;9.82;4.43;;;;;;;;;;7374189;19;20078;-78
2022/04/11 01:48:11;;;;;;;11.73;4.50;;;;;;;;;;7370972;19;20015;-79
2022/04/11 01:50:37;;;;;;;12.88;4.43;;;;;;;;;;7374303;19;20023;-77
2022/04/11 01:53:12;;;;;;;16.05;4.60;;;;;;;;;;7374308;19;20003;-82
2022/04/11 01:55:38;;;;;;;8.65;4.20;;;;;;;;;;7367878;19;20509;-77
2022/04/11 01:58:04;;;;;;;9.95;4.35;;;;;;;;;;7375609;19;20034;-78
2022/04/11 02:00:29;;;;;;;12.82;4.43;;;;;;;;;;7377710;19;20007;-77
2022/04/11 02:02:54;;;;;;;12.80;5.05;;;;;;;;;;7371335;19;20006;-79
2022/04/11 02:05:20;;;;;;;11.88;3.85;;;;;;;;;;7342658;19;20029;-77
2022/04/11 02:07:45;;;;;;;14.02;4.60;;;;;;;;;;7375555;19;20047;-78
2022/04/11 02:10:10;;;;;;;10.00;3.75;;;;;;;;;;7377261;19;20339;-80
2022/04/11 02:12:35;;;;;;;10.30;4.38;;;;;;;;;;7375148;19;20017;-77
2022/04/11 02:15:00;;;;;;;13.23;4.18;;;;;;;;;;7369833;19;20003;-77
2022/04/11 02:17:26;;;;;;;15.18;3.83;;;;;;;;;;7373640;19;20027;-78
2022/04/11 02:19:51;;;;;;;12.13;4.35;;;;;;;;;;7350465;19;20003;-81
2022/04/11 02:22:16;;;;;;;13.18;3.88;;;;;;;;;;7370607;19;19995;-79
2022/04/11 02:24:41;;;;;;;10.75;4.32;;;;;;;;;;7371860;19;20018;-80
2022/04/11 02:27:06;;;;;;;12.88;4.82;;;;;;;;;;7374935;19;20107;-77
2022/04/11 02:29:32;;;;;;;9.87;4.03;;;;;;;;;;7377667;19;20006;-78
2022/04/11 02:31:57;;;;;;;12.57;4.32;;;;;;;;;;7375271;19;20794;-77
2022/04/11 02:34:25;;;;;;;14.93;4.15;;;;;;;;;;7371364;19;20018;-78
2022/04/11 02:36:50;;;;;;;8.15;3.63;;;;;;;;;;7371631;19;19999;-78
2022/04/11 02:39:15;;;;;;;12.35;4.55;;;;;;;;;;7375249;19;20013;-77
2022/04/11 02:41:40;;;;;;;10.52;3.78;;;;;;;;;;7378146;19;20022;-80
2022/04/11 02:44:06;;;;;;;10.27;3.67;;;;;;;;;;7368219;19;19998;-78
2022/04/11 02:46:31;;;;;;;9.65;3.47;;;;;;;;;;7370129;19;20010;-81
2022/04/11 02:48:56;;;;;;;9.07;4.30;;;;;;;;;;7372613;19;19991;-78
2022/04/11 02:51:21;;;;;;;10.77;3.90;;;;;;;;;;7371477;19;20592;-79
2022/04/11 02:53:46;;;;;;;11.85;3.85;;;;;;;;;;7374558;19;20011;-79
2022/04/11 02:56:12;;;;;;;9.50;3.65;;;;;;;;;;7371178;19;20014;-80
2022/04/11 02:58:37;;;;;;;8.38;3.42;;;;;;;;;;7376794;19;20011;-78
2022/04/11 03:01:02;;;;;;;8.68;3.50;;;;;;;;;;7371169;19;20034;-78
2022/04/11 03:03:27;;;;;;;9.63;3.90;;;;;;;;;;7375316;19;20014;-78
2022/04/11 03:05:53;;;;;;;8.43;3.60;;;;;;;;;;7369586;19;20014;-78
2022/04/11 03:08:18;;;;;;;10.20;4.00;;;;;;;;;;7366028;19;20023;-77
2022/04/11 03:10:43;;;;;;;8.97;3.87;;;;;;;;;;7374656;19;20066;-79
2022/04/11 03:13:08;;;;;;;12.52;3.90;;;;;;;;;;7374520;19;20271;-78
2022/04/11 03:15:34;;;;;;;11.45;3.78;;;;;;;;;;7376704;19;20525;-78
2022/04/11 03:17:59;;;;;;;11.32;4.30;;;;;;;;;;7376439;19;20346;-77
2022/04/11 03:20:24;;;;;;;12.00;3.97;;;;;;;;;;7367760;19;20014;-78
2022/04/11 03:22:49;;;;;;;13.43;4.38;;;;;;;;;;7371176;19;20007;-77
2022/04/11 03:25:14;;;;;;;11.73;3.83;;;;;;;;;;7376018;19;20018;-78
2022/04/11 03:27:39;;;;;;;12.18;4.10;;;;;;;;;;7366858;19;20263;-77
2022/04/11 03:30:05;;;;;;;9.80;4.18;;;;;;;;;;7371556;19;20005;-81
2022/04/11 03:32:30;;;;;;;12.88;3.88;;;;;;;;;;7370164;19;20259;-80
2022/04/11 03:34:55;;;;;;;11.10;3.90;;;;;;;;;;7370602;19;20035;-77
2022/04/11 03:37:22;;;;;;;12.73;4.32;;;;;;;;;;7364573;19;20018;-81
2022/04/11 03:39:47;;;;;;;11.88;4.00;;;;;;;;;;7375591;19;20015;-77
2022/04/11 03:42:12;;;;;;;11.98;4.20;;;;;;;;;;7375516;19;20034;-78
2022/04/11 03:44:37;;;;;;;10.18;4.05;;;;;;;;;;7372316;19;20013;-78
2022/04/11 03:47:03;;;;;;;12.52;4.18;;;;;;;;;;7373778;19;20007;-77
2022/04/11 03:49:28;;;;;;;13.52;4.72;;;;;;;;;;7377950;19;20417;-77
2022/04/11 03:51:54;;;;;;;17.45;4.80;;;;;;;;;;7379885;19;20070;-78
2022/04/11 03:54:19;;;;;;;13.50;4.53;;;;;;;;;;7376209;19;20248;-78
2022/04/11 03:56:44;;;;;;;12.05;5.05;;;;;;;;;;7378787;19;20259;-78
2022/04/11 03:59:09;;;;;;;10.52;4.88;;;;;;;;;;7376423;19;20447;-80
2022/04/11 04:01:34;;;;;;;10.50;4.45;;;;;;;;;;7373323;19;20489;-77
2022/04/11 04:04:00;;;;;;;12.80;4.65;;;;;;;;;;7381642;19;20485;-78
2022/04/11 04:06:25;;;;;;;10.55;4.10;;;;;;;;;;7375092;19;20015;-77
2022/04/11 04:08:50;;;;;;;10.07;4.50;;;;;;;;;;7377756;19;20034;-78
2022/04/11 04:11:16;;;;;;;11.40;4.53;;;;;;;;;;7375969;19;20014;-78
2022/04/11 04:13:41;;;;;;;10.52;4.28;;;;;;;;;;7380287;19;20002;-77
2022/04/11 04:16:06;;;;;;;12.13;4.85;;;;;;;;;;7381856;19;20056;-78
2022/04/11 04:18:32;;;;;;;9.80;4.00;;;;;;;;;;7382485;19;20015;-80
2022/04/11 04:20:57;;;;;;;11.35;4.50;;;;;;;;;;7375685;19;20373;-82
2022/04/11 04:23:22;;;;;;;11.90;4.72;;;;;;;;;;7377542;19;20026;-78
2022/04/11 04:25:47;;;;;;;8.95;4.25;;;;;;;;;;7377326;19;20011;-78
2022/04/11 04:28:17;;;;;;;9.73;3.83;;;;;;;;;;7380814;19;20398;-80
2022/04/11 04:30:42;;;;;;;12.85;4.45;;;;;;;;;;7376367;19;20287;-82
2022/04/11 04:33:07;;;;;;;11.02;4.00;;;;;;;;;;7378862;19;20031;-78
2022/04/11 04:35:33;;;;;;;10.30;4.55;;;;;;;;;;7377162;19;20014;-79
2022/04/11 04:37:58;;;;;;;12.43;5.05;;;;;;;;;;7378644;19;20022;-79
2022/04/11 04:40:23;;;;;;;10.95;3.78;;;;;;;;;;7380423;19;20518;-81
2022/04/11 04:42:48;;;;;;;10.98;5.00;;;;;;;;;;7376176;19;20044;-79
2022/04/11 04:45:13;;;;;;;10.00;4.97;;;;;;;;;;7379642;19;20003;-80
2022/04/11 04:47:39;;;;;;;11.80;4.63;;;;;;;;;;7376749;19;20759;-79
2022/04/11 04:50:04;;;;;;;9.25;4.35;;;;;;;;;;7372455;19;20471;-78
2022/04/11 04:52:30;;;;;;;15.52;4.78;;;;;;;;;;7368496;19;20034;-81
2022/04/11 04:54:55;;;;;;;15.50;4.10;;;;;;;;;;7378477;19;20006;-80
2022/04/11 04:57:20;;;;;;;12.90;4.78;;;;;;;;;;7379659;19;20076;-77
2022/04/11 04:59:45;;;;;;;11.05;4.65;;;;;;;;;;7378162;19;20022;-78
2022/04/11 05:02:10;;;;;;;15.48;5.03;;;;;;;;;;7374043;19;20027;-78
2022/04/11 05:04:36;;;;;;;16.98;7.13;;;;;;;;;;7378167;19;20325;-81
2022/04/11 05:07:01;;;;;;;14.88;5.80;;;;;;;;;;7376193;19;20483;-78
2022/04/11 05:09:26;;;;;;;10.27;4.90;;;;;;;;;;7381751;19;20002;-78
2022/04/11 05:11:51;;;;;;;12.65;5.35;;;;;;;;;;7377246;19;20330;-78
2022/04/11 05:14:17;;;;;;;10.05;4.38;;;;;;;;;;7384204;19;20087;-78
2022/04/11 05:16:42;;;;;;;11.98;5.13;;;;;;;;;;7382283;19;20459;-77
2022/04/11 05:19:07;;;;;;;12.55;4.70;;;;;;;;;;7374758;19;20014;-81
2022/04/11 05:21:32;;;;;;;12.05;5.13;;;;;;;;;;7378904;19;20030;-78
2022/04/11 05:23:57;;;;;;;12.00;5.33;;;;;;;;;;7383834;19;20471;-77
2022/04/11 05:26:22;;;;;;;10.10;4.95;;;;;;;;;;7382320;19;20282;-76
2022/04/11 05:28:48;;;;;;;13.73;5.03;;;;;;;;;;7374382;19;20320;-77
2022/04/11 05:31:14;;;;;;;9.95;4.28;;;;;;;;;;7380612;19;20379;-77
2022/04/11 05:33:39;;;;;;;12.25;4.78;;;;;;;;;;7381649;19;20089;-77
2022/04/11 05:36:05;;;;;;;9.48;4.10;;;;;;;;;;7377942;19;20403;-78
2022/04/11 05:38:30;;;;;;;9.45;4.40;;;;;;;;;;7383662;19;20030;-76
2022/04/11 05:40:58;;;;;;;11.52;4.55;;;;;;;;;;7374696;19;20459;-76
2022/04/11 05:43:23;;;;;;;13.27;4.57;;;;;;;;;;7382068;19;20383;-77
2022/04/11 05:45:48;;;;;;;11.27;4.45;;;;;;;;;;7381640;19;20015;-77
2022/04/11 05:48:14;;;;;;;10.73;4.10;;;;;;;;;;7372852;19;20030;-77
2022/04/11 05:50:39;;;;;;;11.48;4.80;;;;;;;;;;7363053;19;20382;-79
2022/04/11 05:53:04;;;;;;;10.23;4.50;;;;;;;;;;7367926;19;19999;-76
2022/04/11 05:55:30;;;;;;;9.48;4.47;;;;;;;;;;7371725;19;20026;-76
2022/04/11 05:57:55;;;;;;;10.32;4.55;;;;;;;;;;7372854;19;20448;-78
2022/04/11 06:00:20;;;;;;;12.55;4.82;;;;;;;;;;7369705;19;20010;-78
2022/04/11 06:02:46;;;;;;;8.68;4.55;;;;;;;;;;7363010;19;20025;-77
2022/04/11 06:05:11;;;;;;;10.77;4.68;;;;;;;;;;7362685;19;20896;-77
2022/04/11 06:07:37;;;;;;;10.35;4.22;;;;;;;;;;7374134;19;20034;-81
2022/04/11 06:10:02;;;;;;;12.73;4.57;;;;;;;;;;7374939;19;20027;-80
2022/04/11 06:12:28;;;;;;;9.85;4.65;;;;;;;;;;7374541;19;20006;-79
2022/04/11 06:14:53;;;;;;;10.30;4.28;;;;;;;;;;7373771;19;20074;-80
2022/04/11 06:17:23;;;;;;;10.30;4.80;;;;;;;;;;7376455;19;20019;-80
2022/04/11 06:19:48;;;;;;;11.40;5.10;;;;;;;;;;7371249;19;20002;-80
2022/04/11 06:22:13;;;;;;;11.20;5.28;;;;;;;;;;7375546;19;20018;-81
2022/04/11 06:24:38;;;;;;;14.00;4.60;;;;;;;;;;7378159;19;20352;-79
2022/04/11 06:27:04;;;;;;;11.68;4.68;;;;;;;;;;7373056;19;20011;-80
2022/04/11 06:29:29;;;;;;;14.18;4.75;;;;;;;;;;7373660;19;20098;-79
2022/04/11 06:31:54;;;;;;;9.73;4.32;;;;;;;;;;7372673;19;20019;-79
2022/04/11 06:34:19;;;;;;;11.40;6.10;;;;;;;;;;7357412;19;19998;-80
2022/04/11 06:36:45;;;;;;;15.18;5.55;;;;;;;;;;7371428;19;20376;-79
2022/04/11 06:39:10;;;;;;;9.88;4.57;;;;;;;;;;7377886;19;19998;-80
2022/04/11 06:41:35;;;;;;;8.88;4.15;;;;;;;;;;7348819;19;20918;-83
2022/04/11 06:44:00;;;;;;;8.47;3.93;;;;;;;;;;7371753;19;20823;-82
2022/04/11 06:46:25;;;;;;;11.27;4.57;;;;;;;;;;7370411;19;20235;-82
2022/04/11 06:48:50;;;;;;;16.40;4.70;;;;;;;;;;7366867;19;20846;-81
2022/04/11 06:51:16;;;;;;;13.40;5.07;;;;;;;;;;7367647;19;20085;-81
2022/04/11 06:53:41;;;;;;;9.07;4.87;;;;;;;;;;7366323;19;20377;-82
2022/04/11 06:56:06;;;;;;;13.57;4.45;;;;;;;;;;7373303;19;20255;-82
2022/04/11 06:58:31;;;;;;;9.40;4.50;;;;;;;;;;7371814;19;20005;-83
2022/04/11 07:00:57;;;;;;;7.60;3.97;;;;;;;;;;7375767;19;20703;-82
2022/04/11 07:03:22;;;;;;;11.18;4.47;;;;;;;;;;7374570;19;20422;-83
2022/04/11 07:05:47;;;;;;;10.63;4.28;;;;;;;;;;7370803;19;20052;-83
2022/04/11 07:08:12;;;;;;;13.70;4.45;;;;;;;;;;7371264;19;20222;-82
2022/04/11 07:10:40;;;;;;;11.82;4.68;;;;;;;;;;7375753;19;20367;-83
2022/04/11 07:13:05;;;;;;;10.40;4.97;;;;;;;;;;7373156;19;19995;-83
2022/04/11 07:15:32;;;;;;;12.07;3.92;;;;;;;;;;7375562;19;20082;-83
2022/04/11 07:17:57;;;;;;;12.48;4.40;;;;;;;;;;7376687;19;20030;-83
2022/04/11 07:20:22;;;;;;;10.97;3.87;;;;;;;;;;7370233;19;19999;-82
2022/04/11 07:22:47;;;;;;;9.63;3.50;;;;;;;;;;7381417;19;20243;-82
2022/04/11 07:25:13;;;;;;;15.27;4.03;;;;;;;;;;7384331;19;20473;-84
2022/04/11 07:27:38;;;;;;;8.98;3.83;;;;;;;;;;7383383;19;20263;-82
2022/04/11 07:30:03;;;;;;;12.00;4.05;;;;;;;;;;7380289;19;20019;-83
2022/04/11 07:32:29;;;;;;;8.90;3.60;;;;;;;;;;7383451;19;20025;-84
2022/04/11 07:34:56;;;;;;;9.07;4.43;;;;;;;;;;7377068;19;20017;-84
2022/04/11 07:37:21;;;;;;;11.52;3.50;;;;;;;;;;7379641;19;20042;-84
2022/04/11 07:39:47;;;;;;;7.05;3.08;;;;;;;;;;7385621;19;20014;-82
2022/04/11 07:42:12;;;;;;;9.77;3.00;;;;;;;;;;7384017;19;20070;-83
2022/04/11 07:44:37;;;;;;;11.33;3.27;;;;;;;;;;7379570;19;20275;-83
2022/04/11 07:47:02;;;;;;;11.25;3.20;;;;;;;;;;7383498;19;20259;-83
2022/04/11 07:49:27;;;;;;;11.20;3.28;;;;;;;;;;7379486;19;20513;-84
2022/04/11 07:51:53;;;;;;;12.17;6.23;;;;;;;;;;7379058;19;20083;-84
2022/04/11 07:54:18;;;;;;;9.60;3.17;;;;;;;;;;7378227;19;20239;-84
2022/04/11 07:56:43;;;;;;;11.85;2.90;;;;;;;;;;7380696;19;20006;-82
2022/04/11 07:59:08;;;;;;;10.67;2.73;;;;;;;;;;7384541;19;20357;-83
2022/04/11 08:01:33;;;;;;;9.05;2.85;;;;;;;;;;7373803;19;20264;-81
2022/04/11 08:03:59;;;;;;;6.20;2.65;;;;;;;;;;7381532;19;20471;-82
2022/04/11 08:06:24;;;;;;;9.27;2.70;;;;;;;;;;7372481;19;20280;-83
2022/04/11 08:08:49;;;;;;;7.63;2.35;;;;;;;;;;7380951;19;20274;-81
2022/04/11 08:11:15;;;;;;;7.88;2.50;;;;;;;;;;7381927;19;20015;-83
2022/04/11 08:13:40;;;;;;;8.80;3.08;;;;;;;;;;7373102;19;20474;-82
2022/04/11 08:16:05;;;;;;;9.10;2.23;;;;;;;;;;7379510;19;20131;-82
2022/04/11 08:18:30;;;;;;;10.03;2.80;;;;;;;;;;7375675;19;20878;-83
2022/04/11 08:20:56;;;;;;;8.70;2.97;;;;;;;;;;7380242;19;20249;-84
2022/04/11 08:23:21;;;;;;;7.50;2.77;;;;;;;;;;7385322;19;20442;-83
2022/04/11 08:25:47;;;;;;;8.00;2.57;;;;;;;;;;7382923;19;20251;-82
2022/04/11 08:28:12;;;;;;;7.10;2.58;;;;;;;;;;7382206;19;20303;-81
2022/04/11 08:30:37;;;;;;;7.87;2.80;;;;;;;;;;7397694;19;19998;-82
2022/04/11 08:33:03;;;;;;;6.25;2.50;;;;;;;;;;7397854;19;20271;-80
2022/04/11 08:35:28;;;;;;;8.85;2.65;;;;;;;;;;7397057;19;20441;-81
2022/04/11 08:37:53;;;;;;;4.77;2.10;;;;;;;;;;7399350;19;20015;-81
2022/04/11 08:40:19;;;;;;;6.95;2.42;;;;;;;;;;7398338;19;20258;-81
2022/04/11 08:42:44;;;;;;;4.57;1.98;;;;;;;;;;7389501;19;20044;-82
2022/04/11 08:45:13;;;;;;;6.03;2.30;;;;;;;;;;7393899;19;20006;-82
2022/04/11 08:47:38;;;;;;;9.20;2.40;;;;;;;;;;7387925;19;20120;-81
2022/04/11 08:50:04;;;;;;;8.68;2.40;;;;;;;;;;7394151;19;20022;-82
2022/04/11 08:52:30;;;;;;;5.82;1.80;;;;;;;;;;7394795;19;20412;-81
2022/04/11 08:54:56;;;;;;;11.10;2.03;;;;;;;;;;7393441;19;19994;-82
2022/04/11 08:57:22;;;;;;;5.93;2.33;;;;;;;;;;7383148;19;20010;-82
2022/04/11 08:59:48;;;;;;;5.60;2.28;;;;;;;;;;7387097;19;20028;-82
2022/04/11 09:02:13;;;;;;;8.27;2.00;;;;;;;;;;7387454;19;20035;-82
2022/04/11 09:04:49;;;;;;;5.15;1.80;;;;;;;;;;7382783;19;20006;-82
2022/04/11 09:07:14;;;;;;;9.43;2.35;;;;;;;;;;7382437;19;20449;-82
2022/04/11 09:09:39;;;;;;;7.00;1.90;;;;;;;;;;7380214;19;19999;-82
2022/04/11 09:12:05;;;;;;;5.25;1.98;;;;;;;;;;7382767;19;20282;-82
2022/04/11 09:14:32;;;;;;;6.50;1.75;;;;;;;;;;7385043;19;20023;-82
2022/04/11 09:16:57;;;;;;;5.53;1.77;;;;;;;;;;7382021;19;20027;-82
2022/04/11 09:19:24;;;;;;;5.47;1.95;;;;;;;;;;7377428;19;20014;-83
2022/04/11 09:21:50;;;;;;;5.93;2.22;;;;;;;;;;7383647;19;20038;-83
2022/04/11 09:24:17;;;;;;;8.98;2.38;;;;;;;;;;7381473;19;20030;-81
2022/04/11 09:26:42;;;;;;;6.22;2.00;;;;;;;;;;7379305;19;20033;-82
2022/04/11 09:29:08;;;;;;;6.57;1.98;;;;;;;;;;7382164;19;20054;-82
2022/04/11 09:31:34;;;;;;;8.45;1.85;;;;;;;;;;7379360;19;20048;-81
2022/04/11 09:34:12;;;;;;;8.90;1.98;;;;;;;;;;7383915;19;20016;-82
2022/04/11 09:36:53;;;;;;;6.90;1.90;;;;;;;;;;7382000;19;20038;-82
2022/04/11 09:39:23;;;;;;;5.15;1.58;;;;;;;;;;7383472;19;20002;-82
2022/04/11 09:41:48;;;;;;;6.13;1.75;;;;;;;;;;7381708;19;20007;-82
2022/04/11 09:44:24;;;;;;;5.97;1.70;;;;;;;;;;7376324;19;20014;-82
2022/04/11 09:46:50;;;;;;;6.18;1.85;;;;;;;;;;7375832;19;20010;-81
2022/04/11 09:49:16;;;;;;;7.15;1.63;;;;;;;;;;7380608;19;20023;-81
2022/04/11 09:51:59;;;;;;;4.28;1.65;;;;;;;;;;7381512;19;20007;-82
2022/04/11 09:54:25;;;;;;;6.65;1.67;;;;;;;;;;7380900;19;20021;-81
2022/04/11 09:56:51;;;;;;;5.07;1.52;;;;;;;;;;7376960;19;20081;-81
2022/04/11 09:59:16;;;;;;;5.68;1.70;;;;;;;;;;7383266;19;20014;-82
2022/04/11 10:01:44;;;;;;;7.85;2.10;;;;;;;;;;7378608;19;20026;-82
2022/04/11 10:04:09;;;;;;;7.15;2.10;;;;;;;;;;7378949;19;20006;-81
2022/04/11 10:06:35;;;;;;;5.93;2.05;;;;;;;;;;7377839;19;20467;-81
2022/04/11 10:09:00;;;;;;;5.90;1.90;;;;;;;;;;7380555;19;20015;-81
2022/04/11 10:11:25;;;;;;;5.03;1.60;;;;;;;;;;7376603;19;20258;-81
2022/04/11 10:13:50;;;;;;;6.70;2.05;;;;;;;;;;7381941;19;20005;-81
2022/04/11 10:16:17;;;;;;;8.35;2.00;;;;;;;;;;7379734;19;20468;-81
2022/04/11 10:18:42;;;;;;;4.55;1.58;;;;;;;;;;7382407;19;20014;-81
2022/04/11 10:21:09;;;;;;;5.97;1.80;;;;;;;;;;7376000;19;20010;-81
2022/04/11 10:23:41;;;;;;;10.65;2.75;;;;;;;;;;7378010;19;20251;-81
2022/04/11 10:26:13;;;;;;;5.88;2.25;;;;;;;;;;7379170;19;20042;-81
2022/04/11 10:28:46;;;;;;;5.72;1.60;;;;;;;;;;7381144;19;20014;-81
2022/04/11 10:31:12;;;;;;;6.47;2.00;;;;;;;;;;7377153;19;20042;-81
2022/04/11 10:33:41;;;;;;;5.82;1.83;;;;;;;;;;7378230;19;20005;-81
2022/04/11 10:36:24;;;;;;;5.97;2.10;;;;;;;;;;7375328;19;20014;-81
2022/04/11 10:39:08;;;;;;;5.33;2.00;;;;;;;;;;7380097;19;19999;-81
2022/04/11 10:41:52;;;;;;;5.25;1.73;;;;;;;;;;7378148;19;20106;-81
2022/04/11 10:44:33;;;;;;;4.72;1.83;;;;;;;;;;7378931;19;20250;-80
2022/04/11 10:47:07;;;;;;;5.72;1.95;;;;;;;;;;7381242;19;20017;-81
2022/04/11 10:49:58;;;;;;;7.78;1.88;;;;;;;;;;7371166;19;20014;-80
2022/04/11 10:52:26;;;;;;;3.80;1.67;;;;;;;;;;7377710;19;20006;-81
2022/04/11 10:54:54;;;;;;;8.80;1.80;;;;;;;;;;7378078;19;20035;-81
2022/04/11 10:57:38;;;;;;;6.30;1.90;;;;;;;;;;7381322;19;20010;-81
2022/04/11 11:00:19;;;;;;;5.95;2.05;;;;;;;;;;7386255;19;20018;-81
2022/04/11 11:05:30;;;;;;;7.45;1.92;;;;;;;;;;7383948;19;19993;-81
2022/04/11 11:08:20;;;;;;;7.15;2.03;;;;;;;;;;7379895;19;20323;-80
2022/04/11 11:10:49;;;;;;;8.68;1.98;;;;;;;;;;7384966;19;20021;-81
2022/04/11 11:13:34;;;;;;;7.32;1.90;;;;;;;;;;7383199;19;20010;-80
2022/04/11 11:16:00;;;;;;;6.45;1.77;;;;;;;;;;7386477;19;20019;-81
2022/04/11 11:18:26;;;;;;;6.93;2.40;;;;;;;;;;7387634;19;20625;-81
2022/04/11 11:20:53;;;;;;;5.20;1.80;;;;;;;;;;7381237;19;20018;-81
2022/04/11 11:23:25;;;;;;;5.68;2.05;;;;;;;;;;7387172;19;20027;-81
2022/04/11 11:25:52;;;;;;;8.52;1.80;;;;;;;;;;7384098;19;20019;-81
2022/04/11 11:28:17;;;;;;;6.15;1.90;;;;;;;;;;7381013;19;20082;-80
2022/04/11 11:30:42;;;;;;;5.05;1.52;;;;;;;;;;7379047;19;20010;-81
2022/04/11 11:33:08;;;;;;;4.93;1.60;;;;;;;;;;7379198;19;20071;-80
2022/04/11 11:35:33;;;;;;;6.00;1.77;;;;;;;;;;7380510;19;20070;-81
2022/04/11 11:38:05;;;;;;;4.90;1.70;;;;;;;;;;7383948;19;20041;-80
2022/04/11 11:40:30;;;;;;;4.97;1.70;;;;;;;;;;7384763;19;20243;-80
2022/04/11 11:42:56;;;;;;;9.93;1.50;;;;;;;;;;7383032;19;20010;-80
2022/04/11 11:45:28;;;;;;;7.78;2.30;;;;;;;;;;7379497;19;20470;-81
2022/04/11 11:47:53;;;;;;;5.65;1.65;;;;;;;;;;7383316;19;20014;-80
2022/04/11 11:50:18;;;;;;;4.38;1.45;;;;;;;;;;7379108;19;20466;-80
2022/04/11 11:52:57;;;;;;;5.53;1.40;;;;;;;;;;7380902;19;20007;-80
2022/04/11 11:55:22;;;;;;;7.70;1.55;;;;;;;;;;7381408;19;20002;-80
2022/04/11 11:57:47;;;;;;;4.80;1.55;;;;;;;;;;7383952;19;20025;-81
2022/04/11 12:00:13;;;;;;;4.40;1.48;;;;;;;;;;7380354;19;20014;-81
2022/04/11 12:05:35;;;;;;;5.00;1.70;;;;;;;;;;7380548;19;20359;-80
2022/04/11 12:08:08;;;;;;;4.25;1.35;;;;;;;;;;7383371;19;20024;-80
2022/04/11 12:10:34;;;;;;;4.78;1.65;;;;;;;;;;7378951;19;20014;-81
2022/04/11 12:12:59;;;;;;;9.00;1.48;;;;;;;;;;7382287;19;20029;-80
2022/04/11 12:15:29;;;;;;;7.28;1.70;;;;;;;;;;7377745;19;20009;-80
2022/04/11 12:18:00;;;;;;;5.78;1.88;;;;;;;;;;7382250;19;20135;-80
2022/04/11 12:20:28;;;;;;;6.85;1.60;;;;;;;;;;7378726;19;20054;-80
2022/04/11 12:23:12;;;;;;;6.00;2.00;;;;;;;;;;7382019;19;20021;-81
2022/04/11 12:25:38;;;;;;;3.92;1.48;;;;;;;;;;7380604;19;20010;-80
2022/04/11 12:28:23;;;;;;;3.78;1.45;;;;;;;;;;7382468;19;20003;-80
2022/04/11 12:31:16;;;;;;;4.20;1.50;;;;;;;;;;7374804;19;20011;-80
2022/04/11 12:33:42;;;;;;;5.45;1.50;;;;;;;;;;7377759;19;20474;-80
2022/04/11 12:36:12;;;;;;;4.40;1.30;;;;;;;;;;7380164;19;20010;-80
2022/04/11 12:38:41;;;;;;;5.85;1.70;;;;;;;;;;7382899;19;19994;-81
2022/04/11 12:41:09;;;;;;;6.75;1.50;;;;;;;;;;7380846;19;20017;-80
2022/04/11 12:43:34;;;;;;;6.88;1.55;;;;;;;;;;7380542;19;20079;-81
2022/04/11 12:46:06;;;;;;;7.57;1.53;;;;;;;;;;7378617;19;20006;-80
2022/04/11 12:48:51;;;;;;;4.63;1.50;;;;;;;;;;7379926;19;20240;-81
2022/04/11 12:51:16;;;;;;;4.07;1.33;;;;;;;;;;7377099;19;20031;-80
2022/04/11 12:53:41;;;;;;;3.17;1.23;;;;;;;;;;7376096;19;19998;-80
2022/04/11 12:56:10;;;;;;;4.43;1.33;;;;;;;;;;7379932;19;20603;-80
2022/04/11 12:58:38;;;;;;;4.85;1.45;;;;;;;;;;7378694;19;20251;-80
2022/04/11 13:01:03;;;;;;;5.60;1.35;;;;;;;;;;7377853;19;20049;-80
2022/04/11 13:03:30;;;;;;;7.50;1.40;;;;;;;;;;7382950;19;19997;-80
2022/04/11 13:05:57;;;;;;;5.50;1.58;;;;;;;;;;7378261;19;20010;-80
2022/04/11 13:08:24;;;;;;;5.25;1.85;;;;;;;;;;7379923;19;20010;-80
2022/04/11 13:10:49;;;;;;;6.20;1.55;;;;;;;;;;7377392;19;20031;-80
2022/04/11 13:13:14;;;;;;;5.18;1.70;;;;;;;;;;7381195;19;20015;-80
2022/04/11 13:18:23;;;;;;;4.50;1.48;;;;;;;;;;7374068;19;20026;-80
2022/04/11 13:18:26;;;;;;;7.45;1.30;;;;;;;;;;7381847;19;20335;-79
2022/04/11 13:20:51;;;;;;;5.07;1.42;;;;;;;;;;7376126;19;20029;-80
2022/04/11 13:23:16;;;;;;;5.05;1.42;;;;;;;;;;7379799;19;20081;-80
2022/04/11 13:25:41;;;;;;;3.80;1.37;;;;;;;;;;7379072;19;20403;-80
2022/04/11 13:28:09;;;;;;;8.10;1.83;;;;;;;;;;7379550;19;20032;-80
2022/04/11 13:30:34;;;;;;;6.25;1.60;;;;;;;;;;7376742;19;20006;-80
2022/04/11 13:32:59;;;;;;;4.45;1.33;;;;;;;;;;7376489;19;20533;-80
2022/04/11 13:35:24;;;;;;;4.70;1.13;;;;;;;;;;7376800;19;20018;-79
2022/04/11 13:37:50;;;;;;;4.97;1.57;;;;;;;;;;7378440;19;20255;-80
2022/04/11 13:40:15;;;;;;;6.13;1.40;;;;;;;;;;7377725;19;20054;-80
2022/04/11 13:42:40;;;;;;;4.73;1.80;;;;;;;;;;7379848;19;20275;-80
2022/04/11 13:45:05;;;;;;;4.57;1.30;;;;;;;;;;7377280;19;20074;-80
2022/04/11 13:47:31;;;;;;;5.03;1.60;;;;;;;;;;7381035;19;20010;-79
2022/04/11 13:49:56;;;;;;;4.07;1.45;;;;;;;;;;7371926;19;20457;-79
2022/04/11 13:52:21;;;;;;;4.27;1.40;;;;;;;;;;7380660;19;20006;-79
2022/04/11 13:54:47;;;;;;;6.40;1.40;;;;;;;;;;7380288;19;20243;-79
2022/04/11 13:57:12;;;;;;;4.15;1.35;;;;;;;;;;7377692;19;20328;-79
2022/04/11 13:59:39;;;;;;;3.67;1.42;;;;;;;;;;7379394;19;20832;-80
2022/04/11 14:02:04;;;;;;;5.60;1.60;;;;;;;;;;7378442;19;20492;-80
2022/04/11 14:04:29;;;;;;;6.35;1.40;;;;;;;;;;7372469;19;20021;-79
2022/04/11 14:06:55;;;;;;;4.33;1.37;;;;;;;;;;7377840;19;20021;-79
2022/04/11 14:09:20;;;;;;;4.28;1.40;;;;;;;;;;7379312;19;20243;-80
2022/04/11 14:11:45;;;;;;;5.13;1.40;;;;;;;;;;7373643;19;20018;-80
2022/04/11 14:14:11;;;;;;;5.03;1.20;;;;;;;;;;7379959;19;20474;-79
2022/04/11 14:16:36;;;;;;;3.63;1.20;;;;;;;;;;7378343;19;20010;-80
2022/04/11 14:19:01;;;;;;;6.27;1.80;;;;;;;;;;7379548;19;20243;-79
2022/04/11 14:21:26;;;;;;;6.32;1.50;;;;;;;;;;7373747;19;20263;-79
2022/04/11 14:23:52;;;;;;;4.35;1.42;;;;;;;;;;7378148;19;20081;-79
2022/04/11 14:26:17;;;;;;;4.80;1.48;;;;;;;;;;7377571;19;20098;-79
2022/04/11 14:28:43;;;;;;;3.75;1.30;;;;;;;;;;7376498;19;20014;-80
2022/04/11 14:31:12;;;;;;;4.50;1.20;;;;;;;;;;7374196;19;20104;-80
2022/04/11 14:33:38;;;;;;;5.22;1.40;;;;;;;;;;7375464;19;20351;-79
2022/04/11 14:36:03;;;;;;;5.72;1.63;;;;;;;;;;7371493;19;20073;-80
2022/04/11 14:38:28;;;;;;;5.97;1.33;;;;;;;;;;7376193;19;20058;-79
2022/04/11 14:40:54;;;;;;;4.25;1.23;;;;;;;;;;7377294;19;20082;-79